Time;durP1;ratioP1;P1;durP2;ratioP2;P2;SDS_P1;SDS_P2;PMS_P1;PMS_P2;Temp;Humidity;BMP_temperature;BMP_pressure;BME280_temperature;BME280_humidity;BME280_pressure;Samples;Min_cycle;Max_cycle;Signal;HPM_P1;HPM_P2
2022/10/23 00:01:29;;;;;;;;;;;;;;;12.00;66.66;100948.10;1751128;82;25797;-61
2022/10/23 00:04:01;;;;;;;;;;;;;;;11.98;66.51;100946.91;1786780;80;26811;-61
2022/10/23 00:06:30;;;;;;;;;;;;;;;11.96;67.03;100951.55;1787847;79;25790;-61
2022/10/23 00:08:57;;;;;;;;;;;;;;;11.94;67.03;100944.09;1782906;80;27466;-61
2022/10/23 00:11:25;;;;;;;;;;;;;;;11.93;66.57;100940.20;1764855;80;25798;-61
2022/10/23 00:13:54;;;;;;;;;;;;;;;11.86;66.98;100943.47;1787941;79;25834;-61
2022/10/23 00:16:21;;;;;;;;;;;;;;;11.85;67.69;100940.89;1788146;78;25816;-61
2022/10/23 00:18:48;;;;;;;;;;;;;;;11.80;68.54;100948.05;1787923;79;25935;-59
2022/10/23 00:21:16;;;;;;;;;;;;;;;11.75;68.31;100939.03;1788055;80;27471;-60
2022/10/23 00:23:44;;;;;;;;;;;;;;;11.74;68.18;100943.23;1787758;80;25767;-62
2022/10/23 00:26:14;;;;;;;;;;;;;;;11.74;68.74;100935.98;1788278;80;25711;-61
2022/10/23 00:28:39;;;;;;;;;;;;;;;11.76;68.17;100931.81;1781206;79;25812;-61
2022/10/23 00:31:06;;;;;;;;;;;;;;;11.77;68.32;100930.83;1756523;81;25677;-61
2022/10/23 00:33:33;;;;;;;;;;;;;;;11.77;68.82;100942.95;1743478;82;28132;-60
2022/10/23 00:35:59;;;;;;;;;;;;;;;11.79;68.94;100946.85;1744006;81;25690;-61
2022/10/23 00:38:25;;;;;;;;;;;;;;;11.79;68.74;100949.03;1743090;81;25740;-61
2022/10/23 00:40:52;;;;;;;;;;;;;;;11.82;68.46;100948.77;1743009;81;25784;-61
2022/10/23 00:43:22;;;;;;;;;;;;;;;11.85;68.64;100942.23;1743416;82;25741;-60
2022/10/23 00:45:49;;;;;;;;;;;;;;;11.85;68.52;100940.41;1743691;81;27412;-60
2022/10/23 00:48:17;;;;;;;;;;;;;;;11.82;68.11;100940.68;1743016;81;25449;-59
2022/10/23 00:50:44;;;;;;;;;;;;;;;11.82;68.91;100947.42;1740345;81;25450;-60
2022/10/23 00:53:12;;;;;;;;;;;;;;;11.79;69.80;100953.08;1716302;82;25824;-61
2022/10/23 00:55:45;;;;;;;;;;;;;;;11.73;69.31;100969.81;1753333;81;25774;-60
2022/10/23 00:58:09;;;;;;;;;;;;;;;11.73;68.86;100972.52;1774159;80;27610;-61
2022/10/23 01:00:45;;;;;;;;;;;;;;;11.73;69.00;100980.59;1773698;81;25715;-60
2022/10/23 01:03:14;;;;;;;;;;;;;;;11.77;68.90;100986.56;1768501;79;25725;-61
2022/10/23 01:06:08;;;;;;;;;;;;;;;11.78;68.98;100989.61;1774151;80;26599;-61
2022/10/23 01:08:56;;;;;;;;;;;;;;;11.81;69.27;100997.44;1774056;81;25664;-60
2022/10/23 01:11:38;;;;;;;;;;;;;;;11.83;70.18;101007.59;1773838;81;27512;-60
2022/10/23 01:14:21;;;;;;;;;;;;;;;11.81;69.58;100997.44;1774039;79;25723;-60
2022/10/23 01:17:03;;;;;;;;;;;;;;;11.83;69.49;101000.84;1769892;80;25743;-59
2022/10/23 01:19:52;;;;;;;;;;;;;;;11.83;70.31;101007.08;1774664;79;25748;-61
2022/10/23 01:22:22;;;;;;;;;;;;;;;11.86;70.89;101007.29;1769838;80;25756;-61
2022/10/23 01:24:52;;;;;;;;;;;;;;;11.86;71.29;101008.64;1773661;80;28598;-60
2022/10/23 01:27:27;;;;;;;;;;;;;;;11.83;71.20;101011.13;1774565;79;25859;-60
2022/10/23 01:30:12;;;;;;;;;;;;;;;11.87;70.96;101008.52;1774284;81;25765;-60
2022/10/23 01:32:56;;;;;;;;;;;;;;;11.93;71.14;101009.78;1774183;80;25802;-60
2022/10/23 01:35:46;;;;;;;;;;;;;;;11.97;71.66;100999.59;1773685;80;26291;-61
2022/10/23 01:38:19;;;;;;;;;;;;;;;12.03;72.16;101005.30;1774088;79;27608;-62
2022/10/23 01:41:07;;;;;;;;;;;;;;;12.08;72.34;101003.52;1755113;79;25759;-60
2022/10/23 01:44:02;;;;;;;;;;;;;;;12.13;72.57;101007.15;1663451;83;25833;-61
2022/10/23 01:46:31;;;;;;;;;;;;;;;12.17;72.31;101009.94;1684706;85;25845;-61
2022/10/23 01:49:00;;;;;;;;;;;;;;;12.21;73.31;101016.73;1704909;82;25973;-61
2022/10/23 01:51:28;;;;;;;;;;;;;;;12.20;72.54;101017.72;1747438;81;28137;-61
2022/10/23 01:53:59;;;;;;;;;;;;;;;12.13;72.41;101021.98;1774364;80;26091;-61
2022/10/23 01:56:29;;;;;;;;;;;;;;;12.14;73.35;101027.73;1773986;81;25763;-61
2022/10/23 01:58:58;;;;;;;;;;;;;;;12.15;73.70;101026.23;1773934;80;25791;-60
2022/10/23 02:01:27;;;;;;;;;;;;;;;12.14;73.64;101027.73;1789119;80;25777;-60
2022/10/23 02:03:55;;;;;;;;;;;;;;;12.16;74.17;101039.24;1751846;80;27496;-61
2022/10/23 02:06:22;;;;;;;;;;;;;;;12.16;74.09;101037.38;1743362;82;25794;-60
2022/10/23 02:08:48;;;;;;;;;;;;;;;12.17;74.40;101039.59;1743365;82;25703;-60
2022/10/23 02:11:19;;;;;;;;;;;;;;;12.21;74.72;101038.31;1743112;81;25776;-61
2022/10/23 02:14:05;;;;;;;;;;;;;;;12.23;74.90;101035.50;1743367;82;25477;-61
2022/10/23 02:16:38;;;;;;;;;;;;;;;12.23;74.18;101041.73;1745391;81;27506;-59
2022/10/23 02:19:25;;;;;;;;;;;;;;;12.20;74.73;101039.30;1774041;81;26580;-60
2022/10/23 02:22:03;;;;;;;;;;;;;;;12.19;74.50;101043.02;1775310;80;25810;-60
2022/10/23 02:24:35;;;;;;;;;;;;;;;12.16;74.54;101042.78;1774413;80;26385;-61
2022/10/23 02:27:06;;;;;;;;;;;;;;;12.11;74.38;101054.49;1754148;81;25666;-60
2022/10/23 02:29:37;;;;;;;;;;;;;;;12.08;75.30;101058.80;1743195;81;27696;-60
2022/10/23 02:32:06;;;;;;;;;;;;;;;12.10;75.55;101057.34;1744878;80;25746;-62
2022/10/23 02:34:33;;;;;;;;;;;;;;;12.08;75.19;101062.02;1757034;81;25796;-60
2022/10/23 02:36:59;;;;;;;;;;;;;;;12.04;75.05;101058.23;1756689;81;25886;-60
2022/10/23 02:39:27;;;;;;;;;;;;;;;11.94;74.80;101058.67;1756887;81;25793;-60
2022/10/23 02:41:57;;;;;;;;;;;;;;;11.92;75.38;101063.84;1754665;80;27465;-60
2022/10/23 02:44:54;;;;;;;;;;;;;;;11.92;75.86;101060.67;1736777;81;26299;-60
2022/10/23 02:47:33;;;;;;;;;;;;;;;11.94;76.18;101069.45;1756878;81;25730;-60
2022/10/23 02:50:06;;;;;;;;;;;;;;;12.00;76.53;101072.13;1755713;81;25867;-61
2022/10/23 02:52:59;;;;;;;;;;;;;;;12.05;76.31;101077.98;1755075;80;25797;-60
2022/10/23 02:55:46;;;;;;;;;;;;;;;12.04;76.03;101079.80;1756943;80;27483;-60
2022/10/23 02:58:28;;;;;;;;;;;;;;;12.09;76.41;101082.59;1756810;81;25765;-61
2022/10/23 03:01:01;;;;;;;;;;;;;;;12.11;76.44;101089.55;1756851;81;25768;-60
2022/10/23 03:03:34;;;;;;;;;;;;;;;12.13;76.66;101097.02;1756565;81;25865;-61
2022/10/23 03:06:02;;;;;;;;;;;;;;;12.14;76.79;101098.72;1757016;81;25722;-60
2022/10/23 03:08:28;;;;;;;;;;;;;;;12.15;76.91;101104.95;1757022;81;28355;-61
2022/10/23 03:10:57;;;;;;;;;;;;;;;12.17;76.65;101108.37;1756808;81;25717;-60
2022/10/23 03:13:23;;;;;;;;;;;;;;;12.18;76.80;101108.22;1756986;81;25765;-60
2022/10/23 03:15:50;;;;;;;;;;;;;;;12.18;76.24;101104.69;1756839;81;25685;-60
2022/10/23 03:18:16;;;;;;;;;;;;;;;12.19;76.39;101114.48;1756803;80;25725;-61
2022/10/23 03:20:47;;;;;;;;;;;;;;;12.16;76.41;101121.50;1743294;80;28318;-60
2022/10/23 03:23:14;;;;;;;;;;;;;;;12.20;76.92;101124.26;1787852;79;25686;-60
2022/10/23 03:25:42;;;;;;;;;;;;;;;12.23;76.89;101123.16;1788339;79;25805;-60
2022/10/23 03:28:11;;;;;;;;;;;;;;;12.27;76.89;101127.27;1787844;79;25937;-60
2022/10/23 03:30:38;;;;;;;;;;;;;;;12.32;76.81;101130.42;1783958;79;25775;-60
2022/10/23 03:33:04;;;;;;;;;;;;;;;12.32;76.26;101139.86;1751162;81;28268;-60
2022/10/23 03:35:32;;;;;;;;;;;;;;;12.29;75.96;101140.12;1743404;81;25736;-61
2022/10/23 03:37:59;;;;;;;;;;;;;;;12.30;76.27;101147.23;1716096;81;26696;-61
2022/10/23 03:40:25;;;;;;;;;;;;;;;12.31;76.63;101143.03;1740267;81;25783;-60
2022/10/23 03:42:52;;;;;;;;;;;;;;;12.31;76.38;101150.29;1737377;82;25496;-60
2022/10/23 03:45:19;;;;;;;;;;;;;;;12.26;76.28;101151.18;1737451;82;27484;-61
2022/10/23 03:47:47;;;;;;;;;;;;;;;12.27;76.45;101149.72;1737159;82;25629;-61
2022/10/23 03:50:14;;;;;;;;;;;;;;;12.32;76.70;101152.00;1739199;81;25756;-61
2022/10/23 03:52:40;;;;;;;;;;;;;;;12.31;76.50;101155.17;1743283;81;25825;-61
2022/10/23 03:55:08;;;;;;;;;;;;;;;12.26;76.38;101157.45;1743323;82;27235;-62
2022/10/23 03:57:36;;;;;;;;;;;;;;;12.25;76.07;101157.09;1743325;82;27585;-59
2022/10/23 04:00:05;;;;;;;;;;;;;;;12.24;76.41;101159.42;1743631;81;25819;-61
2022/10/23 04:02:32;;;;;;;;;;;;;;;12.24;76.61;101166.67;1743692;81;25667;-60
2022/10/23 04:04:58;;;;;;;;;;;;;;;12.25;76.75;101167.88;1743598;81;25937;-60
2022/10/23 04:07:27;;;;;;;;;;;;;;;12.25;77.04;101171.92;1743241;82;25722;-61
2022/10/23 04:09:54;;;;;;;;;;;;;;;12.30;77.78;101172.34;1743486;81;27508;-59
2022/10/23 04:12:21;;;;;;;;;;;;;;;12.26;77.42;101168.23;1743418;82;26384;-60
2022/10/23 04:14:48;;;;;;;;;;;;;;;12.07;78.59;101175.75;1743869;82;25797;-59
2022/10/23 04:17:15;;;;;;;;;;;;;;;11.87;80.91;101181.05;1743481;81;26720;-60
2022/10/23 04:19:42;;;;;;;;;;;;;;;11.76;81.10;101183.83;1743348;81;25755;-59
2022/10/23 04:22:08;;;;;;;;;;;;;;;11.69;81.83;101185.35;1764968;81;28377;-61
2022/10/23 04:24:35;;;;;;;;;;;;;;;11.62;81.96;101181.45;1774413;81;25614;-60
2022/10/23 04:27:01;;;;;;;;;;;;;;;11.57;82.88;101186.77;1774338;80;25656;-59
2022/10/23 04:29:31;;;;;;;;;;;;;;;11.54;82.46;101184.83;1774028;81;25808;-60
2022/10/23 04:31:58;;;;;;;;;;;;;;;11.53;82.61;101189.86;1774266;80;25710;-60
2022/10/23 04:34:24;;;;;;;;;;;;;;;11.48;83.73;101197.46;1785343;80;27392;-60
2022/10/23 04:36:52;;;;;;;;;;;;;;;11.41;85.08;101203.39;1770604;80;25744;-60
2022/10/23 04:39:19;;;;;;;;;;;;;;;11.39;84.00;101198.61;1787352;80;25766;-60
2022/10/23 04:41:47;;;;;;;;;;;;;;;11.37;85.14;101204.65;1756843;81;25884;-59
2022/10/23 04:44:13;;;;;;;;;;;;;;;11.36;84.85;101201.59;1756926;81;25764;-58
2022/10/23 04:46:40;;;;;;;;;;;;;;;11.38;84.33;101205.02;1756816;81;27562;-61
2022/10/23 04:49:09;;;;;;;;;;;;;;;11.38;84.58;101209.53;1756296;80;26499;-61
2022/10/23 04:51:37;;;;;;;;;;;;;;;11.35;85.61;101212.00;1683225;82;25869;-61
2022/10/23 04:54:11;;;;;;;;;;;;;;;11.33;85.86;101218.00;1748352;82;25776;-60
2022/10/23 04:56:48;;;;;;;;;;;;;;;11.29;85.87;101220.61;1706420;84;25924;-60
2022/10/23 04:59:19;;;;;;;;;;;;;;;11.30;85.54;101224.98;1751282;82;28360;-60
2022/10/23 05:01:47;;;;;;;;;;;;;;;11.26;85.75;101219.52;1751029;82;25641;-60
2022/10/23 05:04:13;;;;;;;;;;;;;;;11.25;85.25;101225.38;1751027;80;25787;-61
2022/10/23 05:06:58;;;;;;;;;;;;;;;11.22;85.67;101222.09;1751083;80;25878;-61
2022/10/23 05:09:41;;;;;;;;;;;;;;;11.23;85.24;101230.53;1762762;80;25776;-61
2022/10/23 05:12:24;;;;;;;;;;;;;;;11.20;85.42;101237.04;1788088;79;28196;-60
2022/10/23 05:14:50;;;;;;;;;;;;;;;11.16;86.10;101243.66;1786392;80;25872;-60
2022/10/23 05:17:20;;;;;;;;;;;;;;;11.13;86.20;101246.63;1787822;79;26531;-60
2022/10/23 05:19:52;;;;;;;;;;;;;;;11.08;87.14;101244.79;1787665;79;25896;-61
2022/10/23 05:22:23;;;;;;;;;;;;;;;11.01;88.14;101248.98;1787936;80;25611;-60
2022/10/23 05:24:51;;;;;;;;;;;;;;;10.98;88.05;101253.29;1787731;80;27576;-60
2022/10/23 05:27:19;;;;;;;;;;;;;;;10.97;87.75;101256.45;1787796;79;25505;-60
2022/10/23 05:29:46;;;;;;;;;;;;;;;10.95;88.12;101262.45;1787819;79;25766;-61
2022/10/23 05:32:15;;;;;;;;;;;;;;;10.92;88.36;101270.30;1787916;80;25704;-61
2022/10/23 05:34:43;;;;;;;;;;;;;;;10.90;89.03;101277.63;1787805;80;25668;-59
2022/10/23 05:37:12;;;;;;;;;;;;;;;10.90;88.95;101273.59;1785271;79;27451;-60
2022/10/23 05:39:39;;;;;;;;;;;;;;;10.93;87.97;101273.86;1781950;79;25891;-61
2022/10/23 05:42:08;;;;;;;;;;;;;;;10.96;88.04;101274.93;1750610;82;25697;-60
2022/10/23 05:44:35;;;;;;;;;;;;;;;10.97;87.80;101280.69;1751315;82;26536;-60
2022/10/23 05:47:10;;;;;;;;;;;;;;;10.94;88.74;101280.45;1751129;81;25912;-61
2022/10/23 05:49:55;;;;;;;;;;;;;;;10.95;88.33;101280.82;1751863;80;27505;-61
2022/10/23 05:52:29;;;;;;;;;;;;;;;10.96;88.04;101286.58;1756961;80;26149;-60
2022/10/23 05:55:08;;;;;;;;;;;;;;;10.98;87.96;101285.09;1756329;81;25618;-60
2022/10/23 05:57:51;;;;;;;;;;;;;;;11.00;87.97;101288.52;1666228;85;25861;-61
2022/10/23 06:00:20;;;;;;;;;;;;;;;11.05;87.85;101291.67;1701703;83;27345;-61
2022/10/23 06:02:48;;;;;;;;;;;;;;;11.11;87.34;101291.66;1720150;83;27455;-60
2022/10/23 06:05:16;;;;;;;;;;;;;;;11.13;87.16;101296.44;1723747;82;25872;-60
2022/10/23 06:07:45;;;;;;;;;;;;;;;11.16;86.67;101300.70;1756541;80;25409;-60
2022/10/23 06:10:12;;;;;;;;;;;;;;;11.18;86.92;101309.02;1787935;80;25775;-60
2022/10/23 06:12:40;;;;;;;;;;;;;;;11.26;86.24;101307.05;1787965;79;25726;-60
2022/10/23 06:15:10;;;;;;;;;;;;;;;11.34;86.12;101304.56;1788052;80;27524;-60
2022/10/23 06:17:38;;;;;;;;;;;;;;;11.50;86.46;101301.45;1788831;79;25767;-61
2022/10/23 06:20:06;;;;;;;;;;;;;;;11.65;85.99;101297.08;1788070;79;25798;-60
2022/10/23 06:22:34;;;;;;;;;;;;;;;11.76;85.63;101299.73;1787897;80;25790;-61
2022/10/23 06:25:04;;;;;;;;;;;;;;;11.79;84.87;101300.79;1788780;79;25477;-61
2022/10/23 06:27:31;;;;;;;;;;;;;;;11.84;84.83;101304.44;1783133;80;28273;-61
2022/10/23 06:29:58;;;;;;;;;;;;;;;11.88;84.66;101305.39;1787914;80;25706;-60
2022/10/23 06:32:25;;;;;;;;;;;;;;;11.97;84.63;101307.84;1788156;80;25699;-60
2022/10/23 06:34:56;;;;;;;;;;;;;;;12.12;84.74;101303.44;1788495;79;25781;-61
2022/10/23 06:37:22;;;;;;;;;;;;;;;12.23;84.26;101304.72;1787878;79;25485;-60
2022/10/23 06:39:51;;;;;;;;;;;;;;;12.31;83.66;101302.70;1780653;79;27452;-60
2022/10/23 06:42:20;;;;;;;;;;;;;;;12.36;83.38;101305.36;1754809;81;25718;-60
2022/10/23 06:44:55;;;;;;;;;;;;;;;12.40;82.96;101310.47;1756783;81;25698;-60
2022/10/23 06:47:29;;;;;;;;;;;;;;;12.48;82.78;101306.12;1707714;81;25947;-61
2022/10/23 06:50:14;;;;;;;;;;;;;;;12.58;82.63;101303.95;1763577;80;25739;-60
2022/10/23 06:52:42;;;;;;;;;;;;;;;12.68;82.61;101303.00;1756893;81;27445;-60
2022/10/23 06:55:09;;;;;;;;;;;;;;;12.75;82.04;101311.41;1757037;81;25757;-60
2022/10/23 06:57:37;;;;;;;;;;;;;;;12.83;81.93;101301.25;1756786;80;25606;-62
2022/10/23 07:00:06;;;;;;;;;;;;;;;12.90;81.60;101307.83;1787282;80;25807;-61
2022/10/23 07:02:35;;;;;;;;;;;;;;;12.98;81.02;101313.87;1788206;79;25676;-61
2022/10/23 07:05:03;;;;;;;;;;;;;;;13.08;80.88;101311.20;1787851;80;27564;-61
2022/10/23 07:07:30;;;;;;;;;;;;;;;13.18;80.58;101311.20;1787848;80;25755;-61
2022/10/23 07:09:57;;;;;;;;;;;;;;;13.18;80.30;101311.20;1788291;79;25607;-61
2022/10/23 07:12:28;;;;;;;;;;;;;;;13.18;80.04;101320.16;1785516;78;25801;-62
2022/10/23 07:14:59;;;;;;;;;;;;;;;13.23;79.94;101316.55;1789179;79;26198;-62
2022/10/23 07:17:28;;;;;;;;;;;;;;;13.25;79.71;101321.80;1788035;78;27704;-61
2022/10/23 07:19:54;;;;;;;;;;;;;;;13.32;79.93;101317.54;1780358;80;25896;-62
2022/10/23 07:22:23;;;;;;;;;;;;;;;13.33;79.82;101317.06;1784323;80;25694;-62
2022/10/23 07:24:51;;;;;;;;;;;;;;;13.23;79.74;101325.14;1786566;79;25868;-61
2022/10/23 07:27:19;;;;;;;;;;;;;;;13.13;80.25;101330.53;1788037;79;25728;-60
2022/10/23 07:29:52;;;;;;;;;;;;;;;13.00;80.73;101326.74;1787182;79;27464;-61
2022/10/23 07:32:19;;;;;;;;;;;;;;;12.92;80.82;101328.77;1787995;79;25767;-60
2022/10/23 07:35:05;;;;;;;;;;;;;;;12.92;80.92;101331.98;1778276;80;25676;-61
2022/10/23 07:37:33;;;;;;;;;;;;;;;12.92;81.03;101337.38;1774020;81;25956;-61
2022/10/23 07:40:04;;;;;;;;;;;;;;;12.92;80.82;101336.88;1766257;80;25759;-61
2022/10/23 07:42:33;;;;;;;;;;;;;;;12.90;81.03;101345.63;1758958;81;27452;-61
2022/10/23 07:45:00;;;;;;;;;;;;;;;12.89;81.36;101347.09;1758893;80;25717;-61
2022/10/23 07:47:28;;;;;;;;;;;;;;;12.91;81.24;101347.31;1758783;80;25693;-61
2022/10/23 07:49:55;;;;;;;;;;;;;;;12.93;81.30;101351.25;1745577;81;25844;-61
2022/10/23 07:52:21;;;;;;;;;;;;;;;12.97;81.39;101354.02;1737603;82;25677;-60
2022/10/23 07:54:53;;;;;;;;;;;;;;;13.07;81.63;101354.90;1731266;82;27496;-60
2022/10/23 07:57:20;;;;;;;;;;;;;;;13.11;81.88;101355.47;1743097;81;25760;-60
2022/10/23 07:59:49;;;;;;;;;;;;;;;13.06;82.76;101362.64;1742549;81;25705;-60
2022/10/23 08:02:18;;;;;;;;;;;;;;;12.98;83.29;101366.05;1732775;82;25930;-61
2022/10/23 08:04:49;;;;;;;;;;;;;;;12.96;83.63;101367.16;1743731;82;26076;-61
2022/10/23 08:07:23;;;;;;;;;;;;;;;12.95;83.83;101366.31;1743127;81;28365;-61
2022/10/23 08:09:50;;;;;;;;;;;;;;;13.00;83.34;101362.69;1743872;81;25623;-60
2022/10/23 08:12:16;;;;;;;;;;;;;;;13.07;83.46;101364.87;1743241;81;25785;-60
2022/10/23 08:14:43;;;;;;;;;;;;;;;13.12;83.67;101360.77;1743385;81;27864;-60
2022/10/23 08:17:11;;;;;;;;;;;;;;;13.14;83.89;101360.10;1764798;79;26020;-60
2022/10/23 08:19:48;;;;;;;;;;;;;;;13.15;84.09;101368.56;1775559;80;27488;-60
2022/10/23 08:22:15;;;;;;;;;;;;;;;13.19;84.14;101373.70;1773815;81;25696;-60
2022/10/23 08:24:43;;;;;;;;;;;;;;;13.24;84.02;101375.48;1774140;81;25747;-61
2022/10/23 08:27:09;;;;;;;;;;;;;;;13.30;83.92;101374.95;1774088;79;25778;-60
2022/10/23 08:29:38;;;;;;;;;;;;;;;13.36;83.55;101373.03;1773529;80;26339;-60
2022/10/23 08:32:05;;;;;;;;;;;;;;;13.48;83.45;101375.64;1773999;79;27477;-60
2022/10/23 08:34:33;;;;;;;;;;;;;;;13.57;83.36;101370.74;1774806;80;25632;-61
2022/10/23 08:37:01;;;;;;;;;;;;;;;13.67;83.22;101367.52;1773783;81;25617;-60
2022/10/23 08:39:28;;;;;;;;;;;;;;;13.77;82.93;101375.14;1769930;80;25925;-61
2022/10/23 08:42:21;;;;;;;;;;;;;;;13.86;82.95;101377.98;1767807;81;25892;-61
2022/10/23 08:45:06;;;;;;;;;;;;;;;13.87;82.56;101379.22;1774135;81;27457;-61
2022/10/23 08:47:40;;;;;;;;;;;;;;;13.87;82.42;101379.22;1773799;80;25659;-61
2022/10/23 08:50:33;;;;;;;;;;;;;;;13.95;82.57;101383.05;1752012;81;25761;-60
2022/10/23 08:53:06;;;;;;;;;;;;;;;14.02;82.24;101393.16;1758363;80;25778;-61
2022/10/23 08:55:35;;;;;;;;;;;;;;;14.05;82.02;101395.56;1758478;80;25782;-60
2022/10/23 08:58:14;;;;;;;;;;;;;;;14.08;82.11;101397.98;1743372;82;27549;-60
2022/10/23 09:00:41;;;;;;;;;;;;;;;14.11;81.85;101398.19;1749285;81;25699;-60
2022/10/23 09:03:09;;;;;;;;;;;;;;;14.18;81.80;101402.53;1772302;80;25751;-60
2022/10/23 09:05:54;;;;;;;;;;;;;;;14.20;81.70;101396.48;1774118;80;25848;-61
2022/10/23 09:08:36;;;;;;;;;;;;;;;14.24;81.58;101395.18;1712439;82;25898;-60
2022/10/23 09:11:13;;;;;;;;;;;;;;;14.26;81.56;101404.02;1743731;81;27422;-61
2022/10/23 09:13:43;;;;;;;;;;;;;;;14.27;81.45;101401.66;1743285;81;25995;-60
2022/10/23 09:16:22;;;;;;;;;;;;;;;14.31;81.36;101398.17;1742327;81;25712;-61
2022/10/23 09:18:49;;;;;;;;;;;;;;;14.38;81.46;101403.34;1764162;80;25800;-61
2022/10/23 09:21:16;;;;;;;;;;;;;;;14.40;81.18;101404.90;1777050;80;25747;-60
2022/10/23 09:23:43;;;;;;;;;;;;;;;14.44;80.71;101411.39;1757506;81;27531;-61
2022/10/23 09:26:15;;;;;;;;;;;;;;;14.50;80.33;101400.84;1757773;80;25768;-61
2022/10/23 09:28:48;;;;;;;;;;;;;;;14.52;79.95;101410.16;1742023;81;25500;-61
2022/10/23 09:31:15;;;;;;;;;;;;;;;14.58;79.81;101412.78;1743271;81;26519;-61
2022/10/23 09:33:54;;;;;;;;;;;;;;;14.66;79.78;101415.12;1743084;81;25899;-62
2022/10/23 09:36:23;;;;;;;;;;;;;;;14.71;79.55;101412.84;1748208;80;27713;-62
2022/10/23 09:38:51;;;;;;;;;;;;;;;14.78;79.26;101414.47;1779355;80;26531;-61
2022/10/23 09:41:28;;;;;;;;;;;;;;;14.90;79.13;101414.25;1746972;80;25780;-61
2022/10/23 09:44:08;;;;;;;;;;;;;;;15.10;78.64;101422.66;1743096;81;26384;-61
2022/10/23 09:46:41;;;;;;;;;;;;;;;15.25;78.47;101416.72;1755476;81;25793;-61
2022/10/23 09:49:19;;;;;;;;;;;;;;;15.37;77.77;101416.04;1769694;81;27526;-62
2022/10/23 09:52:02;;;;;;;;;;;;;;;15.45;77.54;101417.48;1747551;80;25796;-61
2022/10/23 09:54:32;;;;;;;;;;;;;;;15.46;76.79;101418.67;1749810;81;25710;-61
2022/10/23 09:57:02;;;;;;;;;;;;;;;15.46;76.76;101424.09;1745877;80;26464;-60
2022/10/23 09:59:30;;;;;;;;;;;;;;;15.48;76.47;101429.36;1761169;81;27468;-61
2022/10/23 10:01:59;;;;;;;;;;;;;;;15.46;76.37;101424.62;1752542;79;27452;-61
2022/10/23 10:04:38;;;;;;;;;;;;;;;15.45;76.36;101425.62;1766464;80;26162;-60
2022/10/23 10:07:20;;;;;;;;;;;;;;;15.48;76.26;101432.94;1764409;80;25702;-61
2022/10/23 10:09:47;;;;;;;;;;;;;;;15.48;76.37;101439.72;1779476;80;25803;-61
2022/10/23 10:12:17;;;;;;;;;;;;;;;15.48;75.95;101428.88;1742309;81;25738;-60
2022/10/23 10:15:06;;;;;;;;;;;;;;;15.47;75.69;101435.78;1752198;81;27660;-60
2022/10/23 10:17:59;;;;;;;;;;;;;;;15.49;75.56;101436.01;1732643;81;25714;-60
2022/10/23 10:20:38;;;;;;;;;;;;;;;15.56;74.83;101436.22;1771463;81;25823;-60
2022/10/23 10:23:36;;;;;;;;;;;;;;;15.63;74.60;101428.34;1693829;84;25903;-60
2022/10/23 10:26:30;;;;;;;;;;;;;;;15.71;74.14;101424.87;1675921;83;25810;-60
2022/10/23 10:29:12;;;;;;;;;;;;;;;15.78;73.97;101432.21;1716182;83;27487;-60
2022/10/23 10:31:48;;;;;;;;;;;;;;;15.84;73.81;101429.42;1700136;83;26123;-60
2022/10/23 10:34:24;;;;;;;;;;;;;;;15.94;73.70;101423.42;1693136;84;25853;-59
2022/10/23 10:36:57;;;;;;;;;;;;;;;16.05;72.99;101425.03;1692211;84;25902;-61
2022/10/23 10:39:37;;;;;;;;;;;;;;;16.16;72.52;101423.09;1692588;84;25765;-61
2022/10/23 10:42:27;;;;;;;;;;;;;;;16.30;72.24;101421.19;1694197;84;27522;-61
2022/10/23 10:45:15;;;;;;;;;;;;;;;16.46;71.79;101418.23;1651479;85;25774;-61
2022/10/23 10:47:50;;;;;;;;;;;;;;;16.51;71.49;101424.89;1666409;86;25815;-61
2022/10/23 10:50:31;;;;;;;;;;;;;;;16.57;71.09;101416.62;1671095;84;26052;-60
2022/10/23 10:53:26;;;;;;;;;;;;;;;16.53;69.73;101415.22;1684156;84;25684;-60
2022/10/23 10:55:57;;;;;;;;;;;;;;;16.64;69.27;101423.59;1712702;83;27518;-59
2022/10/23 10:58:36;;;;;;;;;;;;;;;16.70;68.32;101417.02;1685388;84;26411;-60
2022/10/23 11:01:07;;;;;;;;;;;;;;;16.66;67.74;101410.71;1679595;83;25672;-60
2022/10/23 11:03:49;;;;;;;;;;;;;;;16.67;67.19;101413.29;1692075;83;26022;-60
2022/10/23 11:06:19;;;;;;;;;;;;;;;16.68;67.52;101413.61;1687828;83;25790;-61
2022/10/23 11:08:45;;;;;;;;;;;;;;;16.63;67.33;101416.48;1721333;83;28326;-60
2022/10/23 11:11:33;;;;;;;;;;;;;;;16.59;67.34;101415.44;1698242;83;25824;-60
2022/10/23 11:14:01;;;;;;;;;;;;;;;16.71;67.36;101411.09;1670709;83;25706;-60
2022/10/23 11:16:31;;;;;;;;;;;;;;;16.78;67.10;101414.87;1701992;83;25899;-59
2022/10/23 11:19:13;;;;;;;;;;;;;;;16.73;66.84;101411.77;1712756;83;25705;-59
2022/10/23 11:21:42;;;;;;;;;;;;;;;16.75;66.96;101417.89;1685239;83;27445;-58
2022/10/23 11:24:18;;;;;;;;;;;;;;;16.80;67.19;101425.08;1718940;83;25594;-58
2022/10/23 11:26:51;;;;;;;;;;;;;;;16.88;67.14;101422.89;1683152;83;25881;-59
2022/10/23 11:29:30;;;;;;;;;;;;;;;16.86;66.40;101428.98;1695583;83;25761;-62
2022/10/23 11:32:22;;;;;;;;;;;;;;;16.82;66.54;101428.98;1693148;83;25945;-60
2022/10/23 11:34:51;;;;;;;;;;;;;;;16.82;66.38;101427.10;1704064;83;27617;-58
2022/10/23 11:37:20;;;;;;;;;;;;;;;16.80;66.44;101433.23;1719873;83;25780;-59
2022/10/23 11:40:02;;;;;;;;;;;;;;;16.78;66.72;101438.45;1720023;83;25638;-59
2022/10/23 11:42:42;;;;;;;;;;;;;;;16.77;66.57;101443.05;1697617;83;26081;-58
2022/10/23 11:45:29;;;;;;;;;;;;;;;16.78;66.24;101437.96;1721115;83;25498;-58
2022/10/23 11:48:02;;;;;;;;;;;;;;;16.85;66.16;101445.81;1669913;86;27586;-58
2022/10/23 11:50:35;;;;;;;;;;;;;;;16.92;66.25;101439.72;1678435;83;25766;-60
2022/10/23 11:53:09;;;;;;;;;;;;;;;16.95;66.13;101446.23;1684219;85;25706;-59
2022/10/23 11:55:33;;;;;;;;;;;;;;;16.98;66.03;101441.33;1685498;83;25919;-60
2022/10/23 11:58:05;;;;;;;;;;;;;;;16.96;65.45;101444.70;1701402;82;25840;-57
2022/10/23 12:00:35;;;;;;;;;;;;;;;16.97;65.57;101434.18;1705317;82;27485;-58
2022/10/23 12:03:02;;;;;;;;;;;;;;;17.02;64.78;101440.48;1689108;83;25734;-59
2022/10/23 12:05:39;;;;;;;;;;;;;;;16.98;64.08;101439.12;1728974;82;25722;-62
2022/10/23 12:08:08;;;;;;;;;;;;;;;17.01;64.44;101438.30;1686677;82;26655;-59
2022/10/23 12:10:38;;;;;;;;;;;;;;;17.02;64.42;101437.28;1708522;82;25710;-59
2022/10/23 12:13:07;;;;;;;;;;;;;;;17.07;63.64;101427.77;1738587;82;27578;-58
2022/10/23 12:15:35;;;;;;;;;;;;;;;17.44;64.27;101425.19;1722060;82;25701;-58
2022/10/23 12:18:15;;;;;;;;;;;;;;;17.90;63.37;101423.39;1684626;83;25865;-59
2022/10/23 12:20:47;;;;;;;;;;;;;;;18.46;62.22;101418.99;1690473;82;25783;-59
2022/10/23 12:23:33;;;;;;;;;;;;;;;18.87;59.63;101418.05;1721729;82;25691;-59
2022/10/23 12:26:25;;;;;;;;;;;;;;;18.97;59.07;101424.67;1738556;82;27465;-59
2022/10/23 12:29:01;;;;;;;;;;;;;;;18.76;58.25;101427.95;1707311;82;25944;-59
2022/10/23 12:31:34;;;;;;;;;;;;;;;18.70;58.26;101428.66;1732980;82;25798;-58
2022/10/23 12:34:16;;;;;;;;;;;;;;;18.59;58.35;101432.61;1708369;82;25811;-59
2022/10/23 12:37:01;;;;;;;;;;;;;;;18.63;57.52;101431.75;1697070;82;26424;-59
2022/10/23 12:39:30;;;;;;;;;;;;;;;18.98;57.96;101418.73;1688911;82;27891;-59
2022/10/23 12:41:59;;;;;;;;;;;;;;;19.46;55.71;101429.06;1721623;82;25784;-59
2022/10/23 12:44:27;;;;;;;;;;;;;;;20.45;54.35;101426.14;1687595;82;25814;-59
2022/10/23 12:46:57;;;;;;;;;;;;;;;21.29;53.44;101425.57;1724868;82;25850;-59
2022/10/23 12:49:26;;;;;;;;;;;;;;;21.76;50.79;101423.39;1745743;82;25647;-59
2022/10/23 12:51:56;;;;;;;;;;;;;;;22.34;50.86;101428.23;1721301;82;27541;-59
2022/10/23 12:54:25;;;;;;;;;;;;;;;23.05;49.19;101424.17;1723680;82;25775;-59
2022/10/23 12:56:52;;;;;;;;;;;;;;;23.76;47.94;101429.83;1719378;82;25672;-59
2022/10/23 12:59:28;;;;;;;;;;;;;;;24.12;45.57;101423.14;1740756;82;27981;-59
2022/10/23 13:01:55;;;;;;;;;;;;;;;24.42;44.09;101432.90;1733171;82;26073;-59